Time;durP1;ratioP1;P1;durP2;ratioP2;P2;SDS_P1;SDS_P2;PMS_P1;PMS_P2;Temp;Humidity;BMP_temperature;BMP_pressure;BME280_temperature;BME280_humidity;BME280_pressure;Samples;Min_cycle;Max_cycle;Signal;HPM_P1;HPM_P2
2022/02/09 00:07:47;;;;;;;4.63;3.10;;;-1.00;99.90;;;;;;5033291;28;20395;-77
2022/02/09 00:10:11;;;;;;;7.50;3.23;;;-1.00;99.90;;;;;;5033386;28;20849;-77
2022/02/09 00:12:54;;;;;;;5.87;3.17;;;-1.00;99.90;;;;;;5032196;28;20989;-77
2022/02/09 00:44:33;;;;;;;7.10;3.03;;;-0.90;99.90;;;;;;5032741;28;20408;-77
2022/02/09 01:12:00;;;;;;;4.57;2.50;;;-0.20;99.90;;;;;;5032692;28;20509;-77
2022/02/09 01:39:01;;;;;;;4.23;2.87;;;-0.90;99.90;;;;;;5036397;28;20272;-77
2022/02/09 01:55:33;;;;;;;4.13;2.50;;;-0.90;99.90;;;;;;5033696;28;20875;-77
2022/02/09 01:57:59;;;;;;;3.70;2.40;;;-1.10;99.90;;;;;;5031450;28;20444;-77
2022/02/09 02:00:26;;;;;;;3.07;2.40;;;-1.10;99.90;;;;;;5034481;28;20788;-77
2022/02/09 02:02:52;;;;;;;3.67;2.33;;;-1.20;99.90;;;;;;5035668;28;20184;-77
2022/02/09 02:05:18;;;;;;;3.97;2.57;;;-1.20;99.90;;;;;;5035495;28;20421;-77
2022/02/09 02:07:52;;;;;;;3.77;2.37;;;-1.20;99.90;;;;;;5035744;28;20444;-77
2022/02/09 02:11:13;;;;;;;3.30;1.53;;;-1.10;99.90;;;;;;5035550;28;20169;-77
2022/02/09 02:16:08;;;;;;;3.20;2.70;;;-1.10;99.90;;;;;;5035596;28;20418;-77
2022/02/09 02:18:28;;;;;;;3.57;2.10;;;-1.20;99.90;;;;;;5035155;28;20443;-77
2022/02/09 02:39:22;;;;;;;3.17;2.10;;;-1.40;99.90;;;;;;5034967;28;20602;-77
2022/02/09 02:42:49;;;;;;;5.00;1.93;;;-1.40;99.90;;;;;;5033629;28;20425;-77
2022/02/09 03:11:12;;;;;;;3.10;2.07;;;-1.20;99.90;;;;;;5034323;28;20435;-77
2022/02/09 03:13:49;;;;;;;3.23;2.10;;;-1.20;99.90;;;;;;5033058;28;20422;-77
2022/02/09 03:16:25;;;;;;;3.67;2.33;;;-1.30;99.90;;;;;;5034151;28;20441;-77
2022/02/09 03:21:46;;;;;;;2.87;2.00;;;-1.40;99.90;;;;;;5034737;28;20925;-77
2022/02/09 03:24:22;;;;;;;3.37;1.47;;;-1.40;99.90;;;;;;5034430;28;20912;-77
2022/02/09 03:48:35;;;;;;;2.30;1.90;;;-1.50;99.90;;;;;;5033571;28;20195;-77
2022/02/09 03:59:15;;;;;;;2.00;1.63;;;-1.40;99.90;;;;;;5032117;28;20444;-77
2022/02/09 04:01:43;;;;;;;2.30;1.70;;;-1.40;99.90;;;;;;5033520;28;20490;-77
2022/02/09 04:04:09;;;;;;;2.00;1.80;;;-1.30;99.90;;;;;;5032022;28;20178;-77
2022/02/09 04:06:37;;;;;;;2.43;1.80;;;-1.30;99.90;;;;;;5033607;28;20413;-77
2022/02/09 04:09:08;;;;;;;2.57;2.00;;;-1.30;99.90;;;;;;5031952;28;20251;-77
2022/02/09 04:11:44;;;;;;;2.93;2.03;;;-1.30;99.90;;;;;;5033210;28;20476;-77
2022/02/09 04:14:22;;;;;;;2.07;1.87;;;-1.30;99.90;;;;;;5033257;28;20539;-77
2022/02/09 04:38:40;;;;;;;4.10;1.87;;;-1.40;99.90;;;;;;5033112;28;20431;-77
2022/02/09 04:51:25;;;;;;;1.90;1.60;;;-1.40;99.90;;;;;;5036932;28;20438;-77
2022/02/09 05:23:21;;;;;;;1.80;1.40;;;-1.50;99.90;;;;;;5037079;28;20752;-76
2022/02/09 05:25:50;;;;;;;1.47;1.37;;;-1.40;99.90;;;;;;5036290;28;20404;-77
2022/02/09 05:28:21;;;;;;;2.03;1.53;;;-1.40;99.90;;;;;;5035046;28;20551;-76
2022/02/09 05:30:51;;;;;;;2.10;1.60;;;-1.40;99.90;;;;;;5036758;28;20926;-76
2022/02/09 05:33:18;;;;;;;2.37;1.60;;;-1.50;99.90;;;;;;5034878;28;20535;-76
2022/02/09 05:35:44;;;;;;;1.83;1.53;;;-1.50;99.90;;;;;;5036182;28;20460;-76
2022/02/09 05:38:14;;;;;;;1.87;1.40;;;-1.50;99.90;;;;;;5036415;28;20433;-76
2022/02/09 05:40:40;;;;;;;1.93;1.53;;;-1.50;99.90;;;;;;5042993;28;20413;-76
2022/02/09 05:43:07;;;;;;;2.77;1.70;;;-1.60;99.90;;;;;;5039477;28;20559;-77
2022/02/09 05:53:23;;;;;;;1.97;1.77;;;-1.70;99.90;;;;;;5036194;28;20246;-76
2022/02/09 06:00:55;;;;;;;3.87;2.30;;;-1.60;99.90;;;;;;5035337;28;20643;-76
2022/02/09 06:03:21;;;;;;;4.23;2.30;;;-1.60;99.90;;;;;;5035651;28;20417;-77
2022/02/09 06:05:47;;;;;;;4.37;1.93;;;-1.70;99.90;;;;;;5035560;28;20244;-76
2022/02/09 06:08:13;;;;;;;3.30;1.97;;;-1.70;99.90;;;;;;5035750;28;20218;-76
2022/02/09 06:10:41;;;;;;;3.23;2.30;;;-1.70;99.90;;;;;;5035446;28;20463;-76
2022/02/09 06:21:06;;;;;;;2.07;1.87;;;-1.70;99.90;;;;;;5036014;28;20484;-77
2022/02/09 06:23:34;;;;;;;2.53;2.00;;;-1.70;99.90;;;;;;5035577;28;20508;-77
2022/02/09 06:26:01;;;;;;;4.83;2.77;;;-1.70;99.90;;;;;;5034117;28;20520;-77
2022/02/09 06:28:29;;;;;;;4.83;2.23;;;-1.70;99.90;;;;;;5035171;28;20512;-77
2022/02/09 06:30:56;;;;;;;3.43;1.97;;;-1.70;99.90;;;;;;5035368;28;20428;-77
2022/02/09 06:33:21;;;;;;;3.60;2.37;;;-1.80;99.90;;;;;;5035002;28;20454;-76
2022/02/09 06:35:48;;;;;;;2.20;1.73;;;-1.70;99.90;;;;;;5032196;28;20417;-76
2022/02/09 06:38:16;;;;;;;2.37;1.70;;;-1.70;99.90;;;;;;5034911;28;20221;-77
2022/02/09 06:40:44;;;;;;;2.93;1.80;;;-1.70;99.90;;;;;;5035050;28;20440;-77
2022/02/09 06:43:11;;;;;;;5.53;3.00;;;-1.60;99.90;;;;;;5035170;28;20420;-77
2022/02/09 06:45:39;;;;;;;8.80;3.07;;;-1.70;99.90;;;;;;5034759;28;20432;-77
2022/02/09 06:48:12;;;;;;;3.57;2.40;;;-1.60;99.90;;;;;;5034908;28;20439;-77
2022/02/09 06:50:42;;;;;;;4.70;2.50;;;-1.70;99.90;;;;;;5034858;28;20419;-77
2022/02/09 06:53:26;;;;;;;2.30;2.07;;;-1.70;99.90;;;;;;5034751;28;21024;-77
2022/02/09 06:55:56;;;;;;;1.53;1.40;;;-1.70;99.90;;;;;;5034740;28;20447;-77
2022/02/09 07:01:06;;;;;;;2.77;2.27;;;-1.70;99.90;;;;;;5035274;28;20422;-77
2022/02/09 07:03:33;;;;;;;3.67;2.20;;;-1.70;99.90;;;;;;5034788;28;20413;-77
2022/02/09 07:05:59;;;;;;;2.27;1.90;;;-1.70;99.90;;;;;;5033256;28;20413;-77
2022/02/09 07:08:24;;;;;;;4.37;2.30;;;-1.70;99.90;;;;;;5034810;28;20450;-77
2022/02/09 07:10:50;;;;;;;3.70;2.33;;;-1.70;99.90;;;;;;5033837;28;20178;-77
2022/02/09 07:13:17;;;;;;;4.03;2.20;;;-1.60;99.90;;;;;;5034064;28;20202;-77
2022/02/09 07:15:48;;;;;;;4.20;2.47;;;-1.70;99.90;;;;;;5034553;28;20232;-77
2022/02/09 07:18:15;;;;;;;2.27;2.00;;;-1.50;99.90;;;;;;5032130;28;20969;-77
2022/02/09 07:23:23;;;;;;;2.57;1.90;;;-1.50;99.90;;;;;;5034499;28;20897;-77
2022/02/09 07:26:03;;;;;;;2.83;1.87;;;-1.40;99.90;;;;;;5034104;28;20942;-77
2022/02/09 07:28:29;;;;;;;2.57;1.90;;;-1.40;99.90;;;;;;5032771;28;20440;-77
2022/02/09 07:30:54;;;;;;;2.47;1.63;;;-1.40;99.90;;;;;;5034007;28;20988;-77
2022/02/09 07:33:20;;;;;;;2.50;1.77;;;-1.50;99.90;;;;;;5034448;28;20198;-77
2022/02/09 07:35:45;;;;;;;3.03;2.27;;;-1.50;99.90;;;;;;5032516;28;20177;-77
2022/02/09 07:38:11;;;;;;;3.73;2.23;;;-1.50;99.90;;;;;;5032852;28;20198;-77
2022/02/09 07:40:42;;;;;;;4.20;2.10;;;-1.50;99.90;;;;;;5033919;28;20174;-77
2022/02/09 07:43:17;;;;;;;2.93;2.10;;;-1.40;99.90;;;;;;5032671;28;20186;-76
2022/02/09 07:49:01;;;;;;;3.50;2.20;;;-1.10;99.90;;;;;;4992432;28;20933;-77
2022/02/09 07:53:59;;;;;;;2.17;1.83;;;-1.00;99.90;;;;;;5033704;28;20418;-76
2022/02/09 07:56:30;;;;;;;4.23;2.40;;;-0.90;99.90;;;;;;5032362;28;20424;-77
2022/02/09 07:58:56;;;;;;;3.23;1.93;;;-0.90;99.90;;;;;;5033918;28;20488;-77
2022/02/09 08:01:22;;;;;;;2.97;1.90;;;-0.60;99.90;;;;;;5033840;28;20788;-77
2022/02/09 08:03:49;;;;;;;1.97;1.77;;;-0.30;99.90;;;;;;5032174;28;20186;-77
2022/02/09 08:06:17;;;;;;;3.30;2.27;;;-0.50;99.90;;;;;;5032073;28;20417;-77
2022/02/09 08:08:44;;;;;;;3.27;2.10;;;-0.10;99.90;;;;;;5031978;28;20444;-77
2022/02/09 08:11:21;;;;;;;2.63;1.83;;;-0.10;99.90;;;;;;5033316;28;20903;-77
2022/02/09 08:30:21;;;;;;;5.23;3.27;;;3.40;99.90;;;;;;5034036;28;20425;-77
2022/02/09 08:32:56;;;;;;;3.30;2.70;;;3.90;99.90;;;;;;5034334;28;20484;-77
2022/02/09 08:35:23;;;;;;;3.20;2.50;;;4.70;99.90;;;;;;5032495;28;20436;-77
2022/02/09 08:37:51;;;;;;;3.27;2.53;;;5.10;99.90;;;;;;5032909;28;20800;-77
2022/02/09 08:40:19;;;;;;;3.53;2.37;;;4.90;99.90;;;;;;5032537;28;20180;-77
2022/02/09 08:42:45;;;;;;;2.80;2.37;;;4.60;99.90;;;;;;5033426;28;20421;-78
2022/02/09 08:45:11;;;;;;;3.90;2.60;;;4.60;99.90;;;;;;5034820;28;20171;-78
2022/02/09 08:47:37;;;;;;;3.70;2.87;;;5.30;99.90;;;;;;5035965;28;20249;-78
2022/02/09 08:50:06;;;;;;;3.97;2.83;;;5.30;99.90;;;;;;5036456;28;20295;-78
2022/02/09 08:52:32;;;;;;;6.97;3.07;;;5.70;99.90;;;;;;5035298;28;20219;-78
2022/02/09 08:54:58;;;;;;;5.77;2.77;;;5.90;99.90;;;;;;5035476;28;20179;-79
2022/02/09 08:57:25;;;;;;;4.83;2.40;;;5.70;99.90;;;;;;5036764;28;20514;-78
2022/02/09 08:59:52;;;;;;;3.13;2.10;;;5.30;99.90;;;;;;5035277;28;20647;-78
2022/02/09 09:02:20;;;;;;;3.57;2.40;;;5.00;99.90;;;;;;5035869;28;20186;-78
2022/02/09 09:04:54;;;;;;;4.97;2.30;;;5.20;99.90;;;;;;5037224;28;20184;-78
2022/02/09 09:07:33;;;;;;;3.87;2.37;;;5.50;99.90;;;;;;5037791;28;20224;-78
2022/02/09 09:19:14;;;;;;;4.17;1.60;;;7.50;99.90;;;;;;5039674;28;20201;-78
2022/02/09 10:00:05;;;;;;;2.60;1.63;;;10.20;93.20;;;;;;5042379;28;20222;-78
2022/02/09 10:02:52;;;;;;;1.93;1.73;;;9.80;92.70;;;;;;5043012;28;20210;-78
2022/02/09 10:33:56;;;;;;;7.10;2.50;;;9.80;93.10;;;;;;5041913;28;20184;-78
2022/02/09 10:36:21;;;;;;;10.40;2.23;;;9.80;92.30;;;;;;5041854;28;20180;-78
2022/02/09 10:38:50;;;;;;;3.57;1.97;;;10.10;93.60;;;;;;5041083;28;20195;-78
2022/02/09 10:41:30;;;;;;;4.07;1.97;;;10.50;92.20;;;;;;5041072;28;20180;-78
2022/02/09 10:44:07;;;;;;;5.73;2.20;;;10.80;92.50;;;;;;5040785;28;20521;-78
2022/02/09 10:46:48;;;;;;;2.87;2.27;;;11.20;92.00;;;;;;5040973;28;20183;-78
2022/02/09 10:49:16;;;;;;;5.07;2.57;;;11.20;90.80;;;;;;5039350;28;20195;-78
2022/02/09 10:51:48;;;;;;;3.07;1.70;;;11.40;91.40;;;;;;5039600;28;20209;-79
2022/02/09 10:54:18;;;;;;;2.23;1.90;;;11.30;90.60;;;;;;5041050;28;20159;-78
2022/02/09 10:56:52;;;;;;;2.40;1.67;;;11.40;91.20;;;;;;5039633;28;20181;-78
2022/02/09 10:59:32;;;;;;;3.40;1.67;;;11.50;90.10;;;;;;5039446;28;20199;-78
2022/02/09 11:02:01;;;;;;;2.30;1.93;;;11.60;91.50;;;;;;5040431;28;20253;-78
2022/02/09 11:04:28;;;;;;;2.47;2.00;;;11.60;87.60;;;;;;5040021;28;20273;-78
2022/02/09 11:06:55;;;;;;;5.87;1.97;;;12.00;89.80;;;;;;5040093;28;20178;-78
2022/02/09 11:09:22;;;;;;;3.50;1.77;;;12.40;89.30;;;;;;5040347;28;20198;-78
2022/02/09 11:11:49;;;;;;;2.77;1.80;;;12.30;89.90;;;;;;5039163;28;20290;-78
2022/02/09 11:14:22;;;;;;;1.70;1.57;;;12.60;89.50;;;;;;5038493;28;20252;-78
2022/02/09 11:16:56;;;;;;;2.97;2.10;;;12.80;90.80;;;;;;5038312;28;20183;-78
2022/02/09 11:19:34;;;;;;;2.90;1.60;;;13.20;85.20;;;;;;5039880;28;20214;-78
2022/02/09 11:22:07;;;;;;;3.13;1.77;;;13.00;88.70;;;;;;5038538;28;20179;-78
2022/02/09 11:24:33;;;;;;;2.40;1.83;;;13.30;84.90;;;;;;5039559;28;20256;-78
2022/02/09 11:27:19;;;;;;;4.57;3.20;;;13.30;87.30;;;;;;5038311;28;20214;-78
2022/02/09 11:30:00;;;;;;;2.27;1.63;;;13.90;86.40;;;;;;5039869;28;20201;-78
2022/02/09 11:35:13;;;;;;;1.17;1.07;;;14.60;81.70;;;;;;5039277;28;20194;-78
2022/02/09 11:37:42;;;;;;;1.20;1.10;;;14.60;79.20;;;;;;5037994;28;20200;-79
2022/02/09 12:11:52;;;;;;;3.87;0.97;;;15.40;73.20;;;;;;5040418;28;20172;-79
2022/02/09 12:15:42;;;;;;;0.70;0.70;;;15.30;71.50;;;;;;5038451;28;20193;-79
2022/02/09 12:17:48;;;;;;;5.10;1.10;;;15.00;70.00;;;;;;5036971;28;20186;-78
2022/02/09 12:23:03;;;;;;;4.27;1.10;;;15.70;70.90;;;;;;5040808;28;20201;-79
2022/02/09 12:25:41;;;;;;;3.27;2.77;;;16.30;72.30;;;;;;5038225;28;20531;-78
2022/02/09 12:28:13;;;;;;;1.70;0.90;;;16.40;69.80;;;;;;5040061;28;20595;-79
2022/02/09 12:30:39;;;;;;;2.13;0.90;;;16.80;66.90;;;;;;5038400;28;20195;-79
2022/02/09 12:33:04;;;;;;;0.93;0.90;;;17.20;66.90;;;;;;5039845;28;20155;-79
2022/02/09 12:35:30;;;;;;;2.67;0.77;;;17.00;65.90;;;;;;5039849;28;20545;-79
2022/02/09 12:37:56;;;;;;;3.23;0.90;;;16.70;63.80;;;;;;5038573;28;20193;-79
2022/02/09 12:40:25;;;;;;;1.40;1.30;;;17.10;65.10;;;;;;5038616;28;20231;-79
2022/02/09 12:42:52;;;;;;;1.10;1.00;;;17.60;65.10;;;;;;5039509;28;20681;-79
2022/02/09 12:45:18;;;;;;;1.00;0.90;;;17.70;64.10;;;;;;5040416;28;20167;-80
2022/02/09 12:47:49;;;;;;;1.77;0.80;;;17.90;63.30;;;;;;5043171;28;20200;-78
2022/02/09 12:50:30;;;;;;;1.13;1.00;;;17.50;61.30;;;;;;5040588;28;20169;-79
2022/02/09 12:52:55;;;;;;;1.43;1.33;;;17.30;61.50;;;;;;5040805;28;20177;-80
2022/02/09 12:55:27;;;;;;;1.77;1.67;;;17.80;62.80;;;;;;5042648;28;20203;-79
2022/02/09 12:57:58;;;;;;;1.10;1.00;;;18.00;62.70;;;;;;5034684;28;20204;-77
2022/02/09 13:00:38;;;;;;;1.47;1.37;;;18.20;59.40;;;;;;5032996;28;20723;-77
2022/02/09 13:03:07;;;;;;;2.43;1.83;;;18.30;60.20;;;;;;5036562;28;20209;-78
2022/02/09 13:05:47;;;;;;;3.83;2.80;;;18.20;60.50;;;;;;5038283;28;20266;-76
2022/02/09 13:08:25;;;;;;;3.37;2.87;;;18.70;57.60;;;;;;5036033;28;20186;-79
2022/02/09 13:13:42;;;;;;;0.80;0.80;;;19.10;58.10;;;;;;5041499;28;20167;-78
2022/02/09 13:16:15;;;;;;;0.77;0.77;;;18.30;54.80;;;;;;5037916;28;20262;-78
2022/02/09 14:16:12;;;;;;;2.47;2.20;;;15.00;50.90;;;;;;5037709;28;20173;-78
2022/02/09 14:48:39;;;;;;;6.13;1.33;;;11.20;62.80;;;;;;5040275;28;20303;-78
2022/02/09 14:56:16;;;;;;;1.40;1.27;;;10.80;65.80;;;;;;5039469;28;20228;-78
2022/02/09 14:58:43;;;;;;;2.30;1.70;;;10.70;64.30;;;;;;5039052;28;20567;-78
2022/02/09 15:04:01;;;;;;;7.10;1.40;;;;;;;;;;5037990;28;20237;-77
2022/02/09 15:09:18;;;;;;;2.90;1.60;;;;;;;;;;5036186;28;20224;-77
2022/02/09 15:11:57;;;;;;;2.03;1.70;;;;;;;;;;5038561;28;20197;-78
2022/02/09 15:14:47;;;;;;;1.73;1.43;;;;;;;;;;5036553;28;20154;-78
2022/02/09 15:22:32;;;;;;;3.03;2.53;;;10.10;66.20;;;;;;5036998;28;20301;-78
2022/02/09 15:24:57;;;;;;;3.83;2.20;;;10.10;66.40;;;;;;5037403;28;20250;-77
2022/02/09 15:27:23;;;;;;;11.37;4.67;;;9.90;68.40;;;;;;5035579;28;20266;-77
2022/02/09 15:29:50;;;;;;;2.43;1.60;;;10.00;87.40;;;;;;5036941;28;20201;-77
2022/02/09 15:32:27;;;;;;;2.97;1.60;;;9.90;71.60;;;;;;5034263;28;20516;-78
2022/02/09 15:35:00;;;;;;;1.83;1.63;;;9.80;79.30;;;;;;5036860;28;20159;-77
2022/02/09 15:39:54;;;;;;;3.33;1.80;;;9.50;73.30;;;;;;5038174;28;20190;-77
2022/02/09 16:39:00;;;;;;;5.60;2.40;;;;;;;;;;5035566;28;20204;-78
2022/02/09 16:44:37;;;;;;;5.40;2.73;;;;;;;;;;5037593;28;20177;-78
2022/02/09 16:47:28;;;;;;;3.90;2.73;;;6.20;93.80;;;;;;5033170;28;20566;-77
2022/02/09 16:50:01;;;;;;;8.13;3.50;;;6.10;99.90;;;;;;5034619;28;20225;-77
2022/02/09 16:52:43;;;;;;;7.60;3.00;;;6.00;97.90;;;;;;5033749;28;20157;-77
2022/02/09 17:19:36;;;;;;;16.63;9.40;;;4.90;99.90;;;;;;5034507;28;20285;-78
2022/02/09 17:22:02;;;;;;;15.17;7.97;;;4.90;99.90;;;;;;5033841;28;20255;-78
2022/02/09 17:24:28;;;;;;;17.50;7.57;;;;;;;;;;5034153;28;20174;-78
2022/02/09 17:26:55;;;;;;;10.57;6.27;;;4.60;99.90;;;;;;5035074;28;20180;-79
2022/02/09 17:29:34;;;;;;;13.27;6.50;;;4.60;99.90;;;;;;5037222;28;20198;-78
2022/02/09 17:32:29;;;;;;;11.63;6.20;;;4.50;99.90;;;;;;5034052;28;20209;-77
2022/02/09 17:37:50;;;;;;;10.13;5.80;;;4.40;99.90;;;;;;5033726;28;20167;-77
2022/02/09 17:54:02;;;;;;;6.93;4.60;;;4.10;99.90;;;;;;5039768;28;20193;-79
2022/02/09 17:56:30;;;;;;;11.60;6.60;;;4.00;99.90;;;;;;5037806;28;20163;-79
2022/02/09 17:59:00;;;;;;;9.77;5.27;;;4.00;99.90;;;;;;5040214;28;20294;-79
2022/02/09 18:01:26;;;;;;;59.13;28.70;;;4.00;99.90;;;;;;5040404;28;20184;-79
2022/02/09 18:03:54;;;;;;;14.63;8.03;;;4.00;99.90;;;;;;5042151;28;20569;-79
2022/02/09 18:06:31;;;;;;;10.37;6.20;;;4.00;99.90;;;;;;5041228;28;20180;-79
2022/02/09 18:09:04;;;;;;;10.73;6.47;;;4.00;99.90;;;;;;5042221;28;20201;-78
2022/02/09 18:30:32;;;;;;;11.43;5.90;;;3.60;99.90;;;;;;5042273;28;20191;-79
2022/02/09 18:46:27;;;;;;;8.90;4.63;;;3.40;99.90;;;;;;5041680;28;20213;-80
2022/02/09 18:59:59;;;;;;;6.70;4.27;;;3.20;99.90;;;;;;5042115;28;20242;-79
2022/02/09 19:31:45;;;;;;;7.03;4.57;;;2.30;99.90;;;;;;5041181;28;20261;-78
2022/02/09 19:51:08;;;;;;;4.93;3.60;;;;;;;;;;5039063;28;20201;-78
2022/02/09 19:56:04;;;;;;;5.70;3.93;;;;;;;;;;5041327;28;20151;-79
2022/02/09 19:58:40;;;;;;;7.53;4.33;;;2.00;99.90;;;;;;5038999;28;20440;-78
2022/02/09 20:01:07;;;;;;;6.77;4.23;;;2.10;99.90;;;;;;5040349;28;20170;-79
2022/02/09 20:03:33;;;;;;;8.03;4.13;;;2.20;99.90;;;;;;5039410;28;20587;-79
2022/02/09 20:05:59;;;;;;;6.77;4.37;;;;;;;;;;5041390;28;20241;-80
2022/02/09 20:08:25;;;;;;;9.30;4.83;;;;;;;;;;5040277;28;20198;-80
2022/02/09 20:10:51;;;;;;;7.20;5.07;;;;;;;;;;5040598;28;20175;-79
2022/02/09 20:13:17;;;;;;;6.30;4.43;;;1.90;99.90;;;;;;5040433;28;20573;-79
2022/02/09 20:15:43;;;;;;;7.07;4.20;;;;;;;;;;5041266;28;20712;-79
2022/02/09 20:18:09;;;;;;;9.07;4.57;;;;;;;;;;5041104;28;20232;-79
2022/02/09 20:20:36;;;;;;;6.07;4.47;;;1.60;99.90;;;;;;5041365;28;20198;-80
2022/02/09 20:23:02;;;;;;;6.83;4.13;;;1.80;99.90;;;;;;5041711;28;20213;-80
2022/02/09 20:25:29;;;;;;;9.63;4.77;;;1.50;99.90;;;;;;5043562;28;20177;-79
2022/02/09 20:27:55;;;;;;;9.10;4.63;;;;;;;;;;5042091;28;20564;-79
2022/02/09 20:30:27;;;;;;;7.13;4.37;;;1.60;99.90;;;;;;5041770;28;20232;-79
2022/02/09 20:32:57;;;;;;;19.33;4.73;;;;;;;;;;5039821;28;20197;-79
2022/02/09 20:35:24;;;;;;;5.60;3.70;;;1.40;99.90;;;;;;5038864;28;20696;-79
2022/02/09 20:37:53;;;;;;;6.30;3.60;;;;;;;;;;5038873;28;20199;-79
2022/02/09 20:40:23;;;;;;;5.50;3.80;;;;;;;;;;5040130;28;20172;-79
2022/02/09 20:42:54;;;;;;;7.07;3.47;;;1.20;99.90;;;;;;5038506;28;20230;-78
2022/02/09 20:45:31;;;;;;;8.07;4.17;;;;;;;;;;5038901;28;20175;-80
2022/02/09 20:48:04;;;;;;;7.53;4.23;;;;;;;;;;5039044;28;20209;-79
2022/02/09 20:50:31;;;;;;;12.97;6.53;;;1.10;99.90;;;;;;5038518;28;20258;-82
2022/02/09 20:52:57;;;;;;;7.73;4.40;;;1.20;99.90;;;;;;5040642;28;20664;-80
2022/02/09 20:55:22;;;;;;;6.53;3.97;;;1.30;99.90;;;;;;5040697;28;20177;-80
2022/02/09 20:57:50;;;;;;;6.83;3.50;;;1.10;99.90;;;;;;5038800;28;20321;-80
2022/02/09 21:00:24;;;;;;;6.90;4.00;;;1.10;99.90;;;;;;5040107;28;20756;-80
2022/02/09 21:03:02;;;;;;;7.00;4.30;;;0.90;99.90;;;;;;5040955;28;20278;-79
2022/02/09 21:05:43;;;;;;;6.17;3.73;;;;;;;;;;5038527;28;20203;-79
2022/02/09 21:13:19;;;;;;;7.47;3.90;;;;;;;;;;5039108;28;20195;-78
2022/02/09 21:18:55;;;;;;;9.00;4.47;;;0.80;99.90;;;;;;5036641;28;20202;-80
2022/02/09 21:32:45;;;;;;;6.97;3.70;;;0.70;99.90;;;;;;5042028;28;20191;-80
2022/02/09 21:54:10;;;;;;;5.60;3.73;;;1.00;99.90;;;;;;5050977;28;20715;-79
2022/02/09 21:56:48;;;;;;;5.97;3.77;;;1.00;99.90;;;;;;5051141;28;20189;-79
2022/02/09 21:59:34;;;;;;;4.73;3.43;;;;;;;;;;5045433;28;20217;-80
2022/02/09 22:28:39;;;;;;;4.07;2.27;;;0.80;99.90;;;;;;5043110;28;20225;-79
2022/02/09 22:55:27;;;;;;;7.23;4.40;;;0.80;99.90;;;;;;5042786;28;20422;-79
2022/02/09 22:57:59;;;;;;;7.47;3.40;;;0.50;99.90;;;;;;5042424;28;20186;-79
2022/02/09 23:00:36;;;;;;;5.83;3.43;;;0.40;99.90;;;;;;5042557;28;20230;-79
2022/02/09 23:03:02;;;;;;;5.40;3.03;;;0.30;99.90;;;;;;5040937;28;20241;-80
2022/02/09 23:13:18;;;;;;;4.27;2.90;;;;;;;;;;5042252;28;20485;-80
2022/02/09 23:16:07;;;;;;;5.10;3.10;;;;;;;;;;5039678;28;20170;-80
2022/02/09 23:21:41;;;;;;;5.40;3.27;;;;;;;;;;5041666;28;20449;-80
2022/02/09 23:24:26;;;;;;;5.00;2.53;;;;;;;;;;5040928;28;20261;-81
